createdAt,value
2023-08-24T00:01:36.726Z,4.70
2023-08-24T00:04:05.632Z,3.10
2023-08-24T00:06:33.531Z,2.38
2023-08-24T00:09:02.846Z,2.70
2023-08-24T00:11:31.610Z,3.38
2023-08-24T00:13:59.373Z,3.35
2023-08-24T00:16:27.147Z,5.13
2023-08-24T00:18:54.974Z,5.78
2023-08-24T00:21:24.918Z,4.78
2023-08-24T00:23:53.753Z,5.55
2023-08-24T00:26:23.247Z,3.67
2023-08-24T00:28:50.934Z,4.30
2023-08-24T00:31:19.625Z,3.58
2023-08-24T00:33:51.653Z,4.88
2023-08-24T00:36:20.080Z,4.90
2023-08-24T00:38:51.920Z,5.35
2023-08-24T00:41:20.100Z,6.00
2023-08-24T00:43:51.063Z,4.57
2023-08-24T00:46:19.670Z,6.40
2023-08-24T00:48:49.272Z,3.05
2023-08-24T00:51:17.556Z,5.38
2023-08-24T00:53:45.393Z,4.15
2023-08-24T00:56:13.526Z,3.95
2023-08-24T00:58:41.959Z,3.22
2023-08-24T01:01:11.159Z,3.47
2023-08-24T01:03:38.901Z,3.28
2023-08-24T01:06:08.008Z,4.07
2023-08-24T01:08:36.014Z,4.05
2023-08-24T01:11:10.930Z,2.65
2023-08-24T01:13:48.063Z,4.03
2023-08-24T01:16:22.637Z,5.55
2023-08-24T01:18:51.547Z,3.03
2023-08-24T01:21:19.910Z,4.95
2023-08-24T01:23:56.106Z,3.40
2023-08-24T01:26:25.675Z,5.03
2023-08-24T01:28:54.215Z,3.65
2023-08-24T01:31:22.008Z,4.95
2023-08-24T01:33:49.989Z,5.47
2023-08-24T01:36:18.903Z,3.22
2023-08-24T01:38:51.507Z,7.50
2023-08-24T01:41:23.357Z,3.30
2023-08-24T01:43:55.915Z,4.10
2023-08-24T01:46:26.244Z,3.20
2023-08-24T01:48:55.288Z,3.80
2023-08-24T01:51:25.479Z,4.07
2023-08-24T01:53:54.084Z,5.70
2023-08-24T01:56:22.482Z,4.35
2023-08-24T01:58:51.961Z,3.40
2023-08-24T02:01:19.775Z,4.30
2023-08-24T02:03:47.728Z,5.53
2023-08-24T02:06:15.594Z,5.82
2023-08-24T02:08:45.372Z,3.90
2023-08-24T02:11:13.104Z,4.63
2023-08-24T02:13:41.245Z,6.72
2023-08-24T02:16:10.975Z,4.97
2023-08-24T02:18:38.946Z,4.97
2023-08-24T02:21:11.478Z,5.68
2023-08-24T02:23:39.446Z,5.95
2023-08-24T02:26:07.160Z,4.68
2023-08-24T02:28:35.439Z,7.00
2023-08-24T02:31:04.216Z,4.97
2023-08-24T02:33:35.700Z,5.78
2023-08-24T02:36:03.386Z,5.22
2023-08-24T02:38:31.126Z,5.15
2023-08-24T02:41:05.887Z,4.95
2023-08-24T02:43:34.150Z,6.07
2023-08-24T02:46:04.306Z,5.93
2023-08-24T02:48:32.226Z,4.07
2023-08-24T02:51:02.159Z,3.97
2023-08-24T02:53:29.826Z,3.72
2023-08-24T02:55:58.184Z,3.55
2023-08-24T02:58:26.053Z,3.90
2023-08-24T03:00:53.917Z,6.10
2023-08-24T03:03:21.816Z,5.63
2023-08-24T03:05:56.718Z,4.97
2023-08-24T03:08:26.168Z,4.90
2023-08-24T03:10:54.536Z,5.75
2023-08-24T03:13:22.503Z,7.68
2023-08-24T03:15:50.502Z,9.77
2023-08-24T03:18:18.935Z,9.57
2023-08-24T03:20:47.990Z,7.05
2023-08-24T03:23:16.739Z,5.05
2023-08-24T03:25:46.089Z,4.25
2023-08-24T03:28:15.347Z,5.40
2023-08-24T03:30:49.222Z,4.70
2023-08-24T03:33:18.222Z,5.22
2023-08-24T03:35:46.123Z,5.57
2023-08-24T03:38:13.884Z,5.78
2023-08-24T03:40:41.919Z,4.60
2023-08-24T03:43:11.151Z,4.68
2023-08-24T03:45:39.081Z,6.25
2023-08-24T03:48:07.445Z,6.68
2023-08-24T03:50:35.306Z,5.10
2023-08-24T03:53:03.388Z,6.00
2023-08-24T03:55:31.205Z,5.85
2023-08-24T03:57:59.270Z,4.60
2023-08-24T04:00:29.182Z,6.85
2023-08-24T04:02:57.035Z,8.40
2023-08-24T04:05:27.257Z,7.30
2023-08-24T04:07:54.990Z,7.97
2023-08-24T04:10:22.908Z,5.97
2023-08-24T04:12:50.655Z,5.32
2023-08-24T04:15:18.538Z,6.03
2023-08-24T04:17:47.737Z,7.88
2023-08-24T04:20:15.639Z,5.90
2023-08-24T04:22:43.523Z,7.15
2023-08-24T04:25:11.286Z,7.10
2023-08-24T04:27:39.370Z,6.53
2023-08-24T04:30:12.627Z,8.13
2023-08-24T04:32:40.808Z,5.78
2023-08-24T04:35:11.258Z,7.43
2023-08-24T04:37:39.494Z,5.85
2023-08-24T04:40:09.265Z,6.22
2023-08-24T04:42:37.090Z,6.38
2023-08-24T04:45:05.211Z,6.00
2023-08-24T04:47:32.917Z,9.88
2023-08-24T04:50:00.811Z,12.20
2023-08-24T04:52:29.854Z,6.03
2023-08-24T04:54:57.631Z,5.40
2023-08-24T04:57:25.828Z,5.90
2023-08-24T04:59:53.592Z,5.90
2023-08-24T05:02:21.307Z,5.32
2023-08-24T05:04:49.839Z,6.13
2023-08-24T05:07:18.592Z,5.55
2023-08-24T05:09:47.781Z,5.55
2023-08-24T05:12:15.473Z,7.80
2023-08-24T05:14:43.150Z,7.60
2023-08-24T05:17:10.881Z,7.00
2023-08-24T05:19:38.567Z,7.82
2023-08-24T05:22:06.294Z,7.82
2023-08-24T05:24:34.106Z,6.57
2023-08-24T05:27:03.155Z,8.05
2023-08-24T05:29:30.847Z,9.00
2023-08-24T05:31:58.588Z,10.52
2023-08-24T05:34:26.259Z,7.90
2023-08-24T05:36:53.951Z,10.32
2023-08-24T05:39:21.838Z,10.75
2023-08-24T05:41:52.911Z,8.93
2023-08-24T05:44:22.404Z,8.80
2023-08-24T05:46:50.258Z,7.43
2023-08-24T05:49:17.981Z,8.95
2023-08-24T05:51:45.836Z,6.60
2023-08-24T05:54:14.472Z,7.18
2023-08-24T05:56:42.158Z,7.57
2023-08-24T05:59:09.971Z,7.72
2023-08-24T06:01:40.089Z,10.20
2023-08-24T06:04:08.016Z,10.93
2023-08-24T06:06:35.824Z,7.43
2023-08-24T06:09:06.335Z,10.70
2023-08-24T06:11:35.786Z,8.07
2023-08-24T06:14:03.614Z,8.50
2023-08-24T06:16:31.663Z,10.88
2023-08-24T06:19:01.031Z,7.97
2023-08-24T06:21:28.900Z,8.45
2023-08-24T06:23:56.574Z,6.53
2023-08-24T06:26:24.324Z,7.68
2023-08-24T06:28:51.979Z,5.55
2023-08-24T06:31:19.663Z,7.90
2023-08-24T06:33:47.693Z,8.10
2023-08-24T06:36:16.733Z,7.40
2023-08-24T06:38:44.416Z,12.30
2023-08-24T06:41:13.520Z,9.68
2023-08-24T06:43:41.563Z,8.93
2023-08-24T06:46:10.058Z,7.82
2023-08-24T06:48:38.273Z,8.48
2023-08-24T06:51:06.463Z,6.90
2023-08-24T06:53:35.578Z,7.88
2023-08-24T06:56:04.990Z,9.90
2023-08-24T06:58:32.935Z,8.13
2023-08-24T07:01:00.689Z,7.25
2023-08-24T07:03:28.477Z,9.85
2023-08-24T07:05:56.258Z,8.70
2023-08-24T07:08:23.948Z,11.32
2023-08-24T07:10:55.452Z,9.82
2023-08-24T07:13:23.496Z,9.15
2023-08-24T07:15:52.059Z,9.65
2023-08-24T07:18:19.838Z,8.25
2023-08-24T07:20:50.834Z,9.50
2023-08-24T07:23:18.578Z,7.65
2023-08-24T07:25:46.226Z,9.18
2023-08-24T07:28:15.617Z,8.60
2023-08-24T07:30:43.329Z,14.00
2023-08-24T07:33:11.055Z,10.73
2023-08-24T07:35:38.783Z,8.82
2023-08-24T07:38:06.610Z,8.65
2023-08-24T07:40:34.340Z,12.48
2023-08-24T07:43:01.990Z,8.43
2023-08-24T07:45:31.081Z,8.63
2023-08-24T07:47:58.986Z,11.52
2023-08-24T07:50:26.673Z,12.07
2023-08-24T07:52:57.421Z,10.90
2023-08-24T07:55:26.004Z,11.57
2023-08-24T07:57:54.044Z,14.43
2023-08-24T08:00:22.145Z,12.93
2023-08-24T08:02:54.207Z,10.20
2023-08-24T08:05:30.614Z,8.93
2023-08-24T08:07:58.385Z,15.40
2023-08-24T08:10:26.374Z,11.68
2023-08-24T08:12:54.153Z,12.43
2023-08-24T08:15:22.106Z,12.13
2023-08-24T08:17:50.909Z,11.80
2023-08-24T08:20:20.330Z,11.73
2023-08-24T08:22:48.269Z,13.30
2023-08-24T08:25:18.786Z,11.02
2023-08-24T08:27:46.829Z,11.27
2023-08-24T08:30:14.973Z,9.82
2023-08-24T08:32:42.811Z,11.75
2023-08-24T08:35:11.417Z,7.38
2023-08-24T08:37:40.458Z,7.93
2023-08-24T08:40:12.568Z,8.75
2023-08-24T08:42:40.900Z,14.02
2023-08-24T08:45:11.589Z,9.65
2023-08-24T08:47:39.716Z,8.43
2023-08-24T08:50:10.203Z,10.25
2023-08-24T08:52:38.060Z,11.13
2023-08-24T08:55:11.314Z,9.65
2023-08-24T08:57:41.017Z,10.68
2023-08-24T09:00:11.233Z,12.57
2023-08-24T09:02:39.495Z,8.88
2023-08-24T09:05:08.038Z,8.18
2023-08-24T09:07:36.693Z,8.15
2023-08-24T09:10:08.646Z,9.13
2023-08-24T09:12:37.112Z,10.57
2023-08-24T09:15:07.227Z,10.27
2023-08-24T09:17:36.529Z,8.70
2023-08-24T09:20:10.878Z,10.27
2023-08-24T09:22:40.751Z,10.20
2023-08-24T09:25:11.478Z,9.90
2023-08-24T09:27:39.255Z,10.15
2023-08-24T09:30:08.397Z,9.50
2023-08-24T09:32:36.181Z,10.80
2023-08-24T09:35:06.754Z,9.65
2023-08-24T09:37:36.443Z,12.07
2023-08-24T09:40:08.772Z,10.30
2023-08-24T09:42:42.797Z,10.15
2023-08-24T09:45:14.226Z,9.82
2023-08-24T09:47:47.395Z,11.13
2023-08-24T09:50:15.265Z,8.02
2023-08-24T09:52:44.473Z,7.65
2023-08-24T09:55:14.105Z,8.88
2023-08-24T09:57:44.238Z,7.97
2023-08-24T10:00:15.361Z,8.80
2023-08-24T10:02:51.446Z,7.93
2023-08-24T10:07:55.375Z,9.48
2023-08-24T10:10:25.923Z,8.90
2023-08-24T10:13:01.606Z,7.88
2023-08-24T10:15:29.774Z,10.70
2023-08-24T10:17:58.500Z,8.80
2023-08-24T10:20:27.123Z,8.23
2023-08-24T10:22:56.877Z,7.32
2023-08-24T10:25:25.781Z,7.72
2023-08-24T10:27:55.536Z,8.98
2023-08-24T10:30:23.503Z,9.52
2023-08-24T10:32:54.749Z,7.82
2023-08-24T10:35:24.357Z,8.65
2023-08-24T10:37:55.135Z,8.90
2023-08-24T10:40:33.728Z,9.05
2023-08-24T10:43:06.386Z,7.85
2023-08-24T10:45:58.846Z,6.82
2023-08-24T10:48:27.692Z,6.13
2023-08-24T10:51:21.724Z,6.07
2023-08-24T10:53:53.289Z,8.60
2023-08-24T10:56:21.696Z,7.82
2023-08-24T10:59:15.175Z,7.43
2023-08-24T11:01:44.155Z,4.97
2023-08-24T11:04:14.031Z,6.00
2023-08-24T11:06:56.101Z,7.57
2023-08-24T11:09:25.382Z,5.70
2023-08-24T11:12:00.729Z,5.05
2023-08-24T11:14:31.330Z,6.00
2023-08-24T11:17:01.165Z,9.25
2023-08-24T11:19:29.214Z,6.07
2023-08-24T11:21:56.986Z,6.78
2023-08-24T11:24:25.005Z,4.95
2023-08-24T11:26:53.515Z,7.07
2023-08-24T11:29:21.547Z,6.43
2023-08-24T11:31:50.635Z,6.10
2023-08-24T11:34:18.417Z,6.18
2023-08-24T11:36:48.462Z,5.53
2023-08-24T11:39:21.170Z,9.43
2023-08-24T11:41:59.698Z,4.32
2023-08-24T11:44:29.337Z,5.55
2023-08-24T11:47:00.744Z,5.10
2023-08-24T11:49:30.377Z,4.65
2023-08-24T11:51:59.336Z,6.38
2023-08-24T11:54:27.363Z,5.22
2023-08-24T11:56:55.405Z,4.40
2023-08-24T11:59:23.423Z,5.03
2023-08-24T12:01:51.735Z,5.22
2023-08-24T12:04:21.130Z,5.80
2023-08-24T12:06:48.878Z,4.20
2023-08-24T12:09:17.293Z,4.30
2023-08-24T12:11:45.000Z,5.85
2023-08-24T12:14:19.454Z,4.25
2023-08-24T12:16:47.266Z,9.48
2023-08-24T12:19:14.922Z,4.85
2023-08-24T12:21:47.549Z,4.60
2023-08-24T12:24:16.111Z,5.03
2023-08-24T12:26:43.772Z,4.63
2023-08-24T12:29:11.493Z,5.72
2023-08-24T12:31:44.436Z,8.82
2023-08-24T12:34:12.554Z,4.70
2023-08-24T12:36:42.369Z,5.03
2023-08-24T12:39:14.732Z,3.75
2023-08-24T12:41:42.642Z,5.55
2023-08-24T12:44:12.728Z,4.28
2023-08-24T12:46:42.416Z,5.35
2023-08-24T12:49:10.309Z,7.65
2023-08-24T12:51:38.472Z,9.15
2023-08-24T12:54:07.165Z,3.30
2023-08-24T12:56:37.914Z,4.75
2023-08-24T12:59:05.891Z,3.70
2023-08-24T13:01:33.924Z,4.10
2023-08-24T13:04:01.640Z,6.95
2023-08-24T13:06:29.294Z,4.22
2023-08-24T13:08:57.071Z,6.75
2023-08-24T13:11:25.456Z,3.28
2023-08-24T13:13:54.541Z,4.07
2023-08-24T13:16:22.243Z,5.03
2023-08-24T13:18:49.945Z,4.50
2023-08-24T13:21:18.742Z,2.90
2023-08-24T13:23:46.658Z,6.97
2023-08-24T13:26:20.849Z,4.13
2023-08-24T13:28:48.820Z,4.55
2023-08-24T13:31:18.201Z,6.97
2023-08-24T13:33:46.723Z,4.15
2023-08-24T13:36:14.585Z,4.65
2023-08-24T13:38:42.357Z,4.13
2023-08-24T13:41:10.006Z,3.63
2023-08-24T13:43:37.738Z,3.47
2023-08-24T13:46:05.523Z,6.50
2023-08-24T13:48:35.605Z,5.75
2023-08-24T13:51:03.388Z,3.30
2023-08-24T13:53:31.108Z,4.15
2023-08-24T13:55:58.773Z,4.55
2023-08-24T13:58:26.530Z,3.70
2023-08-24T14:00:57.519Z,5.32
2023-08-24T14:03:25.749Z,5.15
2023-08-24T14:05:58.639Z,4.43
2023-08-24T14:08:26.960Z,6.72
2023-08-24T14:10:55.016Z,2.97
2023-08-24T14:13:22.857Z,3.60
2023-08-24T14:15:51.484Z,4.70
2023-08-24T14:18:19.677Z,3.40
2023-08-24T14:20:47.562Z,4.32
2023-08-24T14:23:16.654Z,4.13
2023-08-24T14:25:44.664Z,2.78
2023-08-24T14:28:12.702Z,4.22
2023-08-24T14:30:41.253Z,6.00
2023-08-24T14:33:08.984Z,2.97
2023-08-24T14:35:36.715Z,4.40
2023-08-24T14:38:04.884Z,2.60
2023-08-24T14:40:34.007Z,3.63
2023-08-24T14:43:01.715Z,3.42
2023-08-24T14:45:29.370Z,2.75
2023-08-24T14:47:57.447Z,4.47
2023-08-24T14:50:25.494Z,5.60
2023-08-24T14:52:53.187Z,4.18
2023-08-24T14:55:20.866Z,6.18
2023-08-24T14:57:54.054Z,4.60
2023-08-24T15:00:22.205Z,3.92
2023-08-24T15:02:50.040Z,5.13
2023-08-24T15:05:19.610Z,3.10
2023-08-24T15:07:48.605Z,4.95
2023-08-24T15:10:17.077Z,3.63
2023-08-24T15:12:45.021Z,3.63
2023-08-24T15:15:17.832Z,3.00
2023-08-24T15:17:46.561Z,3.58
2023-08-24T15:20:14.875Z,4.20
2023-08-24T15:22:42.545Z,4.55
2023-08-24T15:25:10.641Z,4.05
2023-08-24T15:27:38.775Z,3.50
2023-08-24T15:30:08.869Z,4.90
2023-08-24T15:32:37.994Z,4.90
2023-08-24T15:35:06.653Z,3.85
2023-08-24T15:37:34.365Z,6.57
2023-08-24T15:40:04.746Z,3.33
2023-08-24T15:42:32.504Z,6.85
2023-08-24T15:45:00.419Z,3.33
2023-08-24T15:47:28.246Z,5.45
2023-08-24T15:49:57.328Z,3.42
2023-08-24T15:52:25.280Z,4.28
2023-08-24T15:54:53.417Z,3.83
2023-08-24T15:57:21.237Z,6.20
2023-08-24T15:59:49.101Z,5.97
2023-08-24T16:02:16.864Z,12.65
2023-08-24T16:04:44.575Z,8.38
2023-08-24T16:07:14.556Z,5.60
2023-08-24T16:09:42.278Z,5.82
2023-08-24T16:12:10.098Z,4.70
2023-08-24T16:14:38.100Z,3.70
2023-08-24T16:17:06.028Z,5.75
2023-08-24T16:19:33.900Z,3.65
2023-08-24T16:22:01.684Z,4.18
2023-08-24T16:24:30.835Z,3.50
2023-08-24T16:26:58.698Z,7.65
2023-08-24T16:29:28.041Z,11.23
2023-08-24T16:31:55.891Z,12.50
2023-08-24T16:34:24.197Z,9.90
2023-08-24T16:36:51.975Z,30.38
2023-08-24T16:39:19.725Z,27.58
2023-08-24T16:41:49.062Z,14.30
2023-08-24T16:44:16.840Z,11.13
2023-08-24T16:46:44.583Z,23.27
2023-08-24T16:49:12.322Z,34.65
2023-08-24T16:51:39.981Z,33.88
2023-08-24T16:54:07.920Z,26.55
2023-08-24T16:56:35.836Z,15.48
2023-08-24T16:59:04.933Z,14.85
2023-08-24T17:01:32.897Z,10.93
2023-08-24T17:04:00.736Z,15.45
2023-08-24T17:06:30.106Z,24.05
2023-08-24T17:08:58.913Z,43.70
2023-08-24T17:11:26.557Z,54.67
2023-08-24T17:13:55.004Z,58.78
2023-08-24T17:16:24.211Z,47.83
2023-08-24T17:18:52.021Z,58.42
2023-08-24T17:21:19.825Z,46.97
2023-08-24T17:23:47.577Z,37.70
2023-08-24T17:26:15.387Z,32.95
2023-08-24T17:28:43.411Z,17.13
2023-08-24T17:31:11.548Z,15.55
2023-08-24T17:33:43.451Z,20.88
2023-08-24T17:36:11.216Z,13.90
2023-08-24T17:38:38.958Z,9.60
2023-08-24T17:41:08.598Z,6.60
2023-08-24T17:43:38.474Z,12.05
2023-08-24T17:46:06.475Z,8.40
2023-08-24T17:48:34.992Z,6.53
2023-08-24T17:51:06.768Z,8.70
2023-08-24T17:53:35.655Z,4.38
2023-08-24T17:56:04.434Z,6.13
2023-08-24T17:58:32.268Z,8.05
2023-08-24T18:01:00.147Z,4.78
2023-08-24T18:03:27.958Z,6.57
2023-08-24T18:05:57.230Z,7.03
2023-08-24T18:08:31.769Z,3.70
2023-08-24T18:11:07.047Z,5.65
2023-08-24T18:13:34.941Z,4.60
2023-08-24T18:16:03.502Z,5.15
2023-08-24T18:18:33.123Z,5.53
2023-08-24T18:21:04.277Z,7.20
2023-08-24T18:23:33.327Z,6.55
2023-08-24T18:26:01.171Z,4.78
2023-08-24T18:28:28.905Z,4.93
2023-08-24T18:30:58.990Z,4.80
2023-08-24T18:33:26.977Z,3.95
2023-08-24T18:35:55.326Z,5.47
2023-08-24T18:38:23.879Z,7.90
2023-08-24T18:40:55.011Z,4.68
2023-08-24T18:43:23.111Z,5.13
2023-08-24T18:46:01.464Z,6.32
2023-08-24T18:48:29.168Z,6.75
2023-08-24T18:50:56.889Z,5.22
2023-08-24T18:53:24.988Z,4.20
2023-08-24T18:55:56.584Z,5.18
2023-08-24T18:58:24.633Z,5.93
2023-08-24T19:00:54.654Z,3.78
2023-08-24T19:03:22.448Z,3.22
2023-08-24T19:05:50.154Z,4.43
2023-08-24T19:08:18.718Z,4.55
2023-08-24T19:10:46.657Z,4.78
2023-08-24T19:13:15.781Z,4.10
2023-08-24T19:15:43.805Z,6.68
2023-08-24T19:18:12.362Z,4.78
2023-08-24T19:20:42.873Z,7.57
2023-08-24T19:23:11.357Z,6.03
2023-08-24T19:25:39.459Z,8.43
2023-08-24T19:28:07.682Z,9.15
2023-08-24T19:30:39.206Z,6.18
2023-08-24T19:33:07.346Z,5.28
2023-08-24T19:35:35.449Z,4.75
2023-08-24T19:38:03.151Z,6.03
2023-08-24T19:40:30.817Z,5.05
2023-08-24T19:42:58.504Z,6.22
2023-08-24T19:45:26.308Z,4.25
2023-08-24T19:47:56.026Z,5.25
2023-08-24T19:50:23.997Z,4.32
2023-08-24T19:52:52.101Z,4.97
2023-08-24T19:55:19.946Z,6.22
2023-08-24T19:57:47.863Z,5.40
2023-08-24T20:00:17.289Z,6.03
2023-08-24T20:02:45.227Z,4.15
2023-08-24T20:05:14.572Z,7.15
2023-08-24T20:07:48.525Z,3.50
2023-08-24T20:10:19.160Z,3.83
2023-08-24T20:12:48.417Z,3.88
2023-08-24T20:15:16.131Z,4.50
2023-08-24T20:17:45.479Z,3.95
2023-08-24T20:20:18.225Z,3.95
2023-08-24T20:22:47.317Z,3.13
2023-08-24T20:25:15.524Z,4.65
2023-08-24T20:27:43.324Z,5.03
2023-08-24T20:30:12.044Z,4.35
2023-08-24T20:32:39.876Z,4.90
2023-08-24T20:35:08.342Z,6.05
2023-08-24T20:37:37.486Z,4.05
2023-08-24T20:40:05.806Z,4.45
2023-08-24T20:42:33.498Z,5.25
2023-08-24T20:45:01.450Z,3.63
2023-08-24T20:47:29.192Z,6.53
2023-08-24T20:49:57.151Z,3.50
2023-08-24T20:52:25.144Z,3.75
2023-08-24T20:54:54.496Z,4.40
2023-08-24T20:57:23.504Z,4.47
2023-08-24T20:59:51.302Z,3.03
2023-08-24T21:02:19.110Z,4.18
2023-08-24T21:04:47.920Z,6.03
2023-08-24T21:07:15.611Z,4.50
2023-08-24T21:09:43.394Z,6.45
2023-08-24T21:12:12.530Z,3.63
2023-08-24T21:14:40.216Z,4.15
2023-08-24T21:17:07.902Z,4.45
2023-08-24T21:19:35.642Z,4.18
2023-08-24T21:22:03.354Z,4.30
2023-08-24T21:24:31.039Z,3.05
2023-08-24T21:26:59.195Z,3.92
2023-08-24T21:29:28.466Z,4.63
2023-08-24T21:31:56.267Z,3.13
2023-08-24T21:34:24.061Z,3.85
2023-08-24T21:36:51.898Z,4.32
2023-08-24T21:39:20.213Z,4.80
2023-08-24T21:41:49.001Z,4.47
2023-08-24T21:44:16.656Z,7.47
2023-08-24T21:46:45.756Z,5.70
2023-08-24T21:49:13.417Z,4.20
2023-08-24T21:51:41.173Z,4.30
2023-08-24T21:54:09.012Z,6.32
2023-08-24T21:56:36.704Z,3.38
2023-08-24T21:59:04.487Z,3.33
2023-08-24T22:01:32.884Z,3.40
2023-08-24T22:04:01.992Z,3.65
2023-08-24T22:06:29.752Z,3.55
2023-08-24T22:08:57.418Z,3.45
2023-08-24T22:11:25.264Z,4.13
2023-08-24T22:13:52.961Z,3.80
2023-08-24T22:16:20.739Z,5.22
2023-08-24T22:18:48.498Z,4.47
2023-08-24T22:21:17.546Z,4.97
2023-08-24T22:23:45.227Z,6.63
2023-08-24T22:26:12.948Z,4.15
2023-08-24T22:28:40.767Z,6.63
2023-08-24T22:31:08.722Z,9.45
2023-08-24T22:33:38.769Z,4.75
2023-08-24T22:36:07.521Z,4.72
2023-08-24T22:38:36.532Z,3.95
2023-08-24T22:41:05.148Z,3.47
2023-08-24T22:43:32.944Z,5.40
2023-08-24T22:46:00.748Z,4.47
2023-08-24T22:48:28.921Z,5.15
2023-08-24T22:50:56.630Z,4.15
2023-08-24T22:53:24.412Z,5.72
2023-08-24T22:55:53.516Z,3.63
2023-08-24T22:58:21.168Z,5.65
2023-08-24T23:00:48.826Z,4.65
2023-08-24T23:03:16.489Z,4.53
2023-08-24T23:05:44.418Z,6.30
2023-08-24T23:08:12.090Z,4.32
2023-08-24T23:10:39.789Z,4.05
2023-08-24T23:13:08.834Z,7.40
2023-08-24T23:15:36.649Z,6.65
2023-08-24T23:18:04.898Z,4.03
2023-08-24T23:20:32.911Z,4.25
2023-08-24T23:23:00.648Z,3.90
2023-08-24T23:25:28.313Z,4.82
2023-08-24T23:27:56.636Z,4.95
2023-08-24T23:30:26.537Z,7.97
2023-08-24T23:32:54.316Z,3.88
2023-08-24T23:35:22.001Z,5.75
2023-08-24T23:37:51.540Z,5.03
2023-08-24T23:40:19.938Z,5.13
2023-08-24T23:42:47.599Z,10.48
2023-08-24T23:45:15.332Z,6.40
2023-08-24T23:47:44.335Z,4.30
2023-08-24T23:50:12.028Z,6.53
2023-08-24T23:52:39.699Z,5.95
2023-08-24T23:55:08.654Z,8.02
2023-08-24T23:57:36.337Z,4.90
